Time;durP1;ratioP1;P1;durP2;ratioP2;P2;SDS_P1;SDS_P2;PMS_P1;PMS_P2;Temp;Humidity;BMP_temperature;BMP_pressure;BME280_temperature;BME280_humidity;BME280_pressure;Samples;Min_cycle;Max_cycle;Signal;HPM_P1;HPM_P2
2021/09/12 12:12:59;;;;;;;1.65;0.82;;;24.70;85.00;;;;;;1346315;26;20625;-81
2021/09/12 12:15:39;;;;;;;0.95;0.88;;;24.70;85.00;;;;;;5012687;28;20077;-80
2021/09/12 12:18:25;;;;;;;0.77;0.70;;;24.70;83.50;;;;;;5054618;28;20063;-81
2021/09/12 12:20:51;;;;;;;0.55;0.50;;;24.80;84.40;;;;;;5053387;28;20041;-80
2021/09/12 12:23:24;;;;;;;0.77;0.60;;;24.90;84.20;;;;;;5043839;28;20041;-79
2021/09/12 12:25:51;;;;;;;0.90;0.70;;;24.90;83.70;;;;;;5043216;28;20728;-80
2021/09/12 12:28:19;;;;;;;1.00;0.88;;;24.90;83.90;;;;;;5037375;28;20041;-80
2021/09/12 12:31:05;;;;;;;1.13;0.80;;;24.90;83.70;;;;;;5040221;28;20300;-80
2021/09/12 12:33:32;;;;;;;1.23;0.50;;;24.90;84.20;;;;;;5064221;28;20577;-79
2021/09/12 12:36:11;;;;;;;0.88;0.60;;;24.90;83.70;;;;;;5057980;28;20118;-81
2021/09/12 12:38:38;;;;;;;0.82;0.63;;;25.00;84.30;;;;;;5062946;28;20269;-81
2021/09/12 12:41:12;;;;;;;1.08;0.80;;;25.00;84.00;;;;;;5064687;28;20064;-79
2021/09/12 12:43:39;;;;;;;1.20;0.80;;;25.10;84.40;;;;;;5060981;28;20041;-78
2021/09/12 12:46:04;;;;;;;1.00;0.90;;;25.00;84.30;;;;;;5048684;28;20032;-81
2021/09/12 12:48:32;;;;;;;1.20;1.10;;;25.00;84.50;;;;;;5040730;28;20316;-78
2021/09/12 12:51:15;;;;;;;1.55;0.90;;;24.90;83.70;;;;;;5057214;28;20047;-78
2021/09/12 12:53:44;;;;;;;1.48;0.93;;;24.90;84.90;;;;;;5062567;28;20037;-78
2021/09/12 12:56:16;;;;;;;1.10;0.90;;;24.90;83.50;;;;;;5057665;28;20041;-78
2021/09/12 12:58:42;;;;;;;1.88;0.90;;;25.00;84.60;;;;;;5049303;28;20119;-79
2021/09/12 13:01:09;;;;;;;0.90;0.80;;;25.10;85.60;;;;;;5049271;28;20036;-85
2021/09/12 13:03:36;;;;;;;1.33;0.70;;;25.30;84.40;;;;;;5044921;28;20481;-78
2021/09/12 13:06:13;;;;;;;1.08;0.98;;;25.60;83.80;;;;;;5061565;28;20072;-80
2021/09/12 13:08:40;;;;;;;1.10;0.88;;;25.90;81.50;;;;;;5056525;28;20082;-80
2021/09/12 13:11:06;;;;;;;1.10;0.95;;;26.10;81.10;;;;;;5044987;28;20028;-80
2021/09/12 13:13:32;;;;;;;1.52;1.00;;;26.20;81.30;;;;;;5057100;28;20040;-80
2021/09/12 13:15:58;;;;;;;1.15;0.90;;;26.10;81.10;;;;;;5052596;28;20379;-80
2021/09/12 13:18:23;;;;;;;1.83;0.88;;;26.10;81.20;;;;;;5039285;28;20036;-79
2021/09/12 13:20:51;;;;;;;1.38;0.98;;;26.10;81.70;;;;;;5059173;28;20063;-80
2021/09/12 13:23:17;;;;;;;1.42;0.90;;;26.10;81.90;;;;;;5029785;28;20055;-80
2021/09/12 13:25:43;;;;;;;0.90;0.70;;;26.10;81.20;;;;;;5050097;28;20037;-80
2021/09/12 13:28:09;;;;;;;0.82;0.73;;;26.10;80.50;;;;;;5056297;28;20095;-80
2021/09/12 13:30:35;;;;;;;3.97;0.75;;;26.10;80.70;;;;;;5054712;28;20427;-80
2021/09/12 13:33:02;;;;;;;1.25;0.98;;;26.20;80.60;;;;;;5056599;28;20036;-79
2021/09/12 13:35:28;;;;;;;1.52;1.00;;;26.20;81.10;;;;;;5049728;28;20332;-80
2021/09/12 13:37:53;;;;;;;1.63;1.10;;;26.10;80.80;;;;;;5054135;28;20116;-79
2021/09/12 13:40:19;;;;;;;0.98;0.85;;;26.10;82.20;;;;;;5056521;28;20075;-79
2021/09/12 13:42:45;;;;;;;1.45;1.00;;;26.10;80.70;;;;;;5048926;28;20039;-80
2021/09/12 13:45:12;;;;;;;1.88;0.95;;;26.20;80.40;;;;;;5058620;28;20041;-80
2021/09/12 13:47:38;;;;;;;5.03;1.20;;;26.30;80.70;;;;;;5057926;28;20456;-80
2021/09/12 13:50:04;;;;;;;2.42;0.80;;;26.20;80.20;;;;;;5062008;28;20124;-79
2021/09/12 13:52:30;;;;;;;1.98;1.05;;;26.20;80.60;;;;;;5053095;28;20079;-79
2021/09/12 13:54:56;;;;;;;1.70;0.93;;;26.30;81.40;;;;;;5062452;28;20076;-80
2021/09/12 13:57:21;;;;;;;2.45;1.35;;;26.40;80.20;;;;;;5064850;28;20110;-80
2021/09/12 13:59:46;;;;;;;2.95;1.15;;;26.50;79.90;;;;;;5052368;28;20068;-80
2021/09/12 14:02:12;;;;;;;1.10;0.93;;;26.50;80.10;;;;;;5039211;28;20045;-79
2021/09/12 14:04:42;;;;;;;1.30;1.02;;;26.60;81.70;;;;;;5052346;28;20067;-80
2021/09/12 14:07:08;;;;;;;1.58;1.15;;;26.50;80.50;;;;;;5064140;28;20043;-80
2021/09/12 14:09:35;;;;;;;1.70;1.33;;;26.40;80.90;;;;;;5043477;28;20041;-80
2021/09/12 14:12:01;;;;;;;3.42;1.40;;;26.40;80.90;;;;;;5054786;28;20439;-80
2021/09/12 14:14:26;;;;;;;2.60;1.40;;;26.30;80.00;;;;;;5059413;28;20044;-80
2021/09/12 14:16:52;;;;;;;2.72;1.40;;;26.20;80.00;;;;;;5062903;28;20176;-78
2021/09/12 14:19:17;;;;;;;2.85;1.23;;;26.10;80.20;;;;;;5054302;28;20037;-78
2021/09/12 14:21:43;;;;;;;1.88;1.48;;;26.10;80.60;;;;;;5055140;28;20041;-79
2021/09/12 14:24:08;;;;;;;1.67;1.40;;;26.10;80.60;;;;;;5056427;28;20142;-78
2021/09/12 14:26:34;;;;;;;2.30;1.33;;;26.10;80.00;;;;;;5039565;28;20545;-78
2021/09/12 14:28:59;;;;;;;2.83;0.90;;;26.00;79.00;;;;;;5056146;28;20047;-79
2021/09/12 14:31:25;;;;;;;2.35;1.15;;;26.00;80.10;;;;;;5051531;28;20422;-79
2021/09/12 14:33:50;;;;;;;1.70;1.33;;;26.00;80.00;;;;;;5070477;28;20725;-79
2021/09/12 14:36:16;;;;;;;1.63;1.17;;;26.00;79.90;;;;;;5056643;28;20052;-79
2021/09/12 14:38:41;;;;;;;1.85;1.30;;;26.00;80.00;;;;;;5053343;28;20114;-79
2021/09/12 14:41:07;;;;;;;1.20;1.00;;;26.00;79.60;;;;;;5051242;28;20037;-78
2021/09/12 14:43:33;;;;;;;1.60;1.27;;;26.00;79.30;;;;;;5039490;28;20183;-80
2021/09/12 14:46:00;;;;;;;2.10;1.35;;;25.90;79.60;;;;;;5049372;28;20030;-78
2021/09/12 14:48:26;;;;;;;1.88;1.45;;;25.90;78.40;;;;;;5052876;28;20040;-78
2021/09/12 14:50:51;;;;;;;1.73;1.58;;;25.80;79.00;;;;;;5051945;28;20044;-79
2021/09/12 14:53:17;;;;;;;1.67;1.15;;;25.80;79.50;;;;;;5056886;28;20052;-79
2021/09/12 14:55:42;;;;;;;2.85;1.55;;;25.70;79.50;;;;;;5054839;28;20299;-78
2021/09/12 14:58:08;;;;;;;2.10;1.80;;;25.60;80.40;;;;;;5039313;28;20047;-78
2021/09/12 15:00:33;;;;;;;2.47;1.90;;;25.50;81.10;;;;;;5051847;28;20368;-78
2021/09/12 15:02:59;;;;;;;1.88;1.67;;;25.30;81.20;;;;;;5049326;28;20029;-78
2021/09/12 15:05:24;;;;;;;2.20;1.88;;;25.10;81.60;;;;;;5056133;28;20388;-78
2021/09/12 15:07:50;;;;;;;2.67;2.22;;;24.90;83.00;;;;;;5038923;28;20470;-78
2021/09/12 15:10:19;;;;;;;3.22;2.17;;;24.70;83.10;;;;;;5055845;28;20072;-78
2021/09/12 15:12:45;;;;;;;2.25;2.05;;;24.50;84.10;;;;;;5052531;28;20033;-78
2021/09/12 15:15:12;;;;;;;3.45;2.35;;;24.30;85.30;;;;;;5056346;28;20048;-78
2021/09/12 15:17:38;;;;;;;3.05;2.10;;;24.20;85.90;;;;;;5056524;28;20092;-78
2021/09/12 15:20:05;;;;;;;2.60;2.28;;;24.10;86.10;;;;;;5045929;28;20102;-79
2021/09/12 15:22:30;;;;;;;3.05;2.05;;;24.00;86.90;;;;;;5039761;28;20045;-79
2021/09/12 15:24:56;;;;;;;3.35;2.55;;;24.00;86.60;;;;;;5054399;28;20041;-78
2021/09/12 15:27:21;;;;;;;2.70;2.22;;;24.00;86.70;;;;;;5057697;28;20119;-78
2021/09/12 15:29:47;;;;;;;4.32;2.40;;;24.00;87.20;;;;;;5067762;28;20067;-79
2021/09/12 15:32:13;;;;;;;2.47;2.28;;;24.00;87.70;;;;;;5032042;28;20192;-81
2021/09/12 15:34:39;;;;;;;3.53;2.67;;;24.10;87.90;;;;;;5051178;28;20040;-79
2021/09/12 15:37:06;;;;;;;4.75;2.75;;;24.00;87.70;;;;;;5059289;28;20041;-79
2021/09/12 15:39:32;;;;;;;2.92;2.22;;;24.10;87.90;;;;;;5051951;28;20037;-80
2021/09/12 15:42:00;;;;;;;3.08;2.63;;;24.10;87.90;;;;;;5065081;28;20110;-81
2021/09/12 15:44:26;;;;;;;4.05;2.85;;;24.20;87.20;;;;;;5058902;28;20116;-78
2021/09/12 15:46:51;;;;;;;3.03;2.20;;;24.20;86.00;;;;;;5061822;28;20470;-78
2021/09/12 15:49:17;;;;;;;2.88;2.00;;;24.20;86.60;;;;;;5056639;28;20036;-79
2021/09/12 15:51:43;;;;;;;2.85;2.42;;;24.20;85.10;;;;;;5069395;28;20045;-80
2021/09/12 15:54:09;;;;;;;2.40;2.05;;;24.20;85.30;;;;;;5053300;28;20033;-78
2021/09/12 15:56:34;;;;;;;3.78;2.47;;;24.20;86.80;;;;;;5054927;28;20051;-79
2021/09/12 15:59:00;;;;;;;3.92;3.10;;;24.20;86.70;;;;;;5044279;28;20404;-81
2021/09/12 16:01:25;;;;;;;4.05;2.83;;;24.20;86.00;;;;;;5054644;28;20106;-79
2021/09/12 16:03:51;;;;;;;3.05;2.40;;;24.10;86.20;;;;;;5049379;28;20051;-79
2021/09/12 16:06:17;;;;;;;2.55;2.35;;;24.00;86.50;;;;;;5048469;28;20067;-80
2021/09/12 16:08:43;;;;;;;2.80;2.30;;;24.00;87.30;;;;;;5056345;28;20037;-80
2021/09/12 16:11:08;;;;;;;2.75;2.30;;;23.90;87.60;;;;;;5062519;28;20036;-80
2021/09/12 16:13:34;;;;;;;2.72;2.15;;;23.80;87.60;;;;;;5070031;28;20045;-79
2021/09/12 16:15:59;;;;;;;2.88;2.20;;;23.70;87.90;;;;;;5069623;28;20037;-79
2021/09/12 16:18:25;;;;;;;2.72;1.92;;;23.60;87.10;;;;;;5064302;28;20074;-79
2021/09/12 16:20:50;;;;;;;3.60;1.75;;;23.60;87.60;;;;;;5064684;28;20098;-80
2021/09/12 16:23:16;;;;;;;2.20;1.75;;;23.60;88.00;;;;;;5052469;28;20048;-79
2021/09/12 16:25:41;;;;;;;1.77;1.63;;;23.60;87.60;;;;;;5062096;28;20047;-78
2021/09/12 16:28:07;;;;;;;3.40;2.00;;;23.40;87.50;;;;;;5041552;28;20033;-79
2021/09/12 16:30:33;;;;;;;2.05;1.65;;;23.40;87.70;;;;;;5058788;28;20040;-78
2021/09/12 16:32:59;;;;;;;2.35;1.70;;;23.40;87.90;;;;;;5056420;28;20056;-78
2021/09/12 16:35:25;;;;;;;2.47;1.70;;;23.40;87.40;;;;;;5058708;28;20055;-80
2021/09/12 16:37:50;;;;;;;2.58;1.60;;;23.40;87.30;;;;;;5040246;28;20041;-83
2021/09/12 16:40:16;;;;;;;3.47;1.48;;;23.40;87.10;;;;;;5054111;28;20044;-83
2021/09/12 16:42:42;;;;;;;2.90;1.42;;;23.30;88.10;;;;;;5063624;28;20044;-80
2021/09/12 16:45:23;;;;;;;2.75;1.77;;;23.30;87.40;;;;;;5052373;28;20284;-80
2021/09/12 16:47:48;;;;;;;3.30;2.20;;;23.20;88.50;;;;;;5034063;28;20057;-80
2021/09/12 16:50:14;;;;;;;2.42;2.22;;;23.20;90.30;;;;;;5058593;28;20348;-80
2021/09/12 16:52:39;;;;;;;2.55;1.98;;;23.10;90.50;;;;;;5043309;28;20037;-80
2021/09/12 16:55:05;;;;;;;3.85;2.60;;;23.10;90.90;;;;;;5058750;28;20112;-80
2021/09/12 16:57:31;;;;;;;5.72;3.63;;;23.10;91.10;;;;;;5065682;28;20044;-80
2021/09/12 16:59:56;;;;;;;3.53;3.22;;;23.00;91.30;;;;;;5054934;28;20041;-79
2021/09/12 17:02:22;;;;;;;5.82;4.45;;;23.00;91.60;;;;;;5027628;28;20426;-79
2021/09/12 17:04:47;;;;;;;4.53;3.30;;;22.90;91.80;;;;;;5047057;28;20040;-79
2021/09/12 17:07:13;;;;;;;4.20;3.38;;;22.80;91.90;;;;;;5035873;28;20127;-80
2021/09/12 17:09:38;;;;;;;6.25;4.20;;;22.80;92.00;;;;;;5041723;28;20136;-81
2021/09/12 17:12:04;;;;;;;5.07;4.38;;;22.80;92.10;;;;;;5033263;28;20121;-81
2021/09/12 17:14:31;;;;;;;4.90;4.00;;;22.70;92.10;;;;;;5052249;28;20396;-80
2021/09/12 17:16:56;;;;;;;5.28;4.07;;;22.70;92.30;;;;;;5045896;28;20072;-80
2021/09/12 17:19:22;;;;;;;5.00;3.47;;;22.60;92.20;;;;;;5039773;28;20376;-79
2021/09/12 17:21:49;;;;;;;5.25;4.55;;;22.60;92.20;;;;;;5048964;28;20029;-80
2021/09/12 17:24:14;;;;;;;4.30;3.90;;;22.50;92.30;;;;;;5052905;28;20072;-79
2021/09/12 17:26:40;;;;;;;4.03;3.30;;;22.40;92.40;;;;;;5048872;28;20078;-79
2021/09/12 17:29:05;;;;;;;5.22;4.07;;;22.30;92.50;;;;;;5056818;28;20359;-79
2021/09/12 17:31:31;;;;;;;5.05;4.00;;;22.20;92.50;;;;;;5051034;28;20036;-79
2021/09/12 17:33:56;;;;;;;4.00;3.35;;;22.10;92.60;;;;;;5055491;28;20045;-80
2021/09/12 17:36:24;;;;;;;5.30;4.15;;;22.10;92.60;;;;;;5053126;28;20458;-80
2021/09/12 17:38:49;;;;;;;5.88;4.07;;;22.00;92.70;;;;;;5047874;28;20076;-80
2021/09/12 17:41:15;;;;;;;4.50;3.47;;;22.00;92.90;;;;;;5047972;28;20037;-80
2021/09/12 17:43:40;;;;;;;4.97;4.00;;;21.90;92.90;;;;;;5054099;28;20619;-80
2021/09/12 17:46:06;;;;;;;4.07;3.67;;;21.90;93.00;;;;;;5043821;28;20065;-81
2021/09/12 17:48:31;;;;;;;4.90;3.67;;;21.80;93.00;;;;;;5043415;28;20037;-79
2021/09/12 17:50:57;;;;;;;5.20;3.80;;;21.80;93.10;;;;;;5039415;28;20037;-79
2021/09/12 17:53:22;;;;;;;4.40;3.97;;;21.70;93.30;;;;;;5044744;28;20103;-80
2021/09/12 17:55:48;;;;;;;5.68;4.15;;;21.70;93.40;;;;;;5046716;28;20045;-80
2021/09/12 17:58:13;;;;;;;5.15;4.10;;;21.60;93.40;;;;;;5053496;28;20028;-80
2021/09/12 18:00:39;;;;;;;6.95;4.13;;;21.60;93.50;;;;;;5049428;28;20057;-79
2021/09/12 18:03:04;;;;;;;4.97;3.60;;;21.50;93.50;;;;;;5050537;28;20087;-80
2021/09/12 18:05:30;;;;;;;4.05;3.50;;;21.50;93.70;;;;;;5055459;28;20052;-80
2021/09/12 18:07:55;;;;;;;4.55;3.63;;;21.40;93.80;;;;;;5046194;28;20343;-78
2021/09/12 18:10:21;;;;;;;4.25;3.70;;;21.40;93.90;;;;;;5046682;28;20654;-79
2021/09/12 18:12:46;;;;;;;4.25;3.55;;;21.30;94.00;;;;;;5045242;28;20087;-79
2021/09/12 18:15:12;;;;;;;4.90;4.00;;;21.30;94.20;;;;;;5054821;28;20040;-79
2021/09/12 18:17:37;;;;;;;5.28;3.47;;;21.20;94.20;;;;;;5049997;28;20036;-80
2021/09/12 18:20:05;;;;;;;4.18;3.78;;;21.10;94.40;;;;;;5046381;28;20120;-79
2021/09/12 18:22:30;;;;;;;5.55;4.00;;;21.10;94.60;;;;;;5051845;28;20150;-79
2021/09/12 18:24:56;;;;;;;4.53;3.58;;;21.00;94.70;;;;;;5041137;28;20686;-79
2021/09/12 18:27:21;;;;;;;4.05;3.65;;;21.00;94.80;;;;;;5045771;28;20352;-79
2021/09/12 18:29:47;;;;;;;5.15;4.03;;;20.90;95.00;;;;;;5048199;28;20128;-79
2021/09/12 18:32:12;;;;;;;9.18;4.25;;;20.90;95.10;;;;;;5034999;28;20037;-79
2021/09/12 18:34:38;;;;;;;5.93;3.70;;;20.80;95.20;;;;;;5037863;28;20443;-79
2021/09/12 18:37:03;;;;;;;6.25;3.90;;;20.70;95.40;;;;;;5033635;28;20097;-80
2021/09/12 18:39:29;;;;;;;4.78;3.78;;;20.70;95.60;;;;;;5035607;28;20336;-79
2021/09/12 18:41:55;;;;;;;5.10;3.60;;;20.70;95.70;;;;;;5047621;28;20048;-80
2021/09/12 18:44:20;;;;;;;7.55;4.60;;;20.60;95.80;;;;;;5051044;28;20080;-80
2021/09/12 18:46:46;;;;;;;6.25;4.68;;;20.50;96.00;;;;;;5048558;28;20033;-78
2021/09/12 18:49:11;;;;;;;5.53;4.50;;;20.50;96.30;;;;;;5045525;28;20316;-80
2021/09/12 18:51:37;;;;;;;5.03;4.28;;;20.40;96.40;;;;;;5028651;28;20033;-79
2021/09/12 18:54:06;;;;;;;6.55;4.10;;;20.40;96.60;;;;;;5048959;28;20477;-78
2021/09/12 18:56:31;;;;;;;5.97;4.57;;;20.30;96.60;;;;;;5048855;28;20070;-79
2021/09/12 18:58:57;;;;;;;7.30;4.53;;;20.20;96.80;;;;;;5047497;28;20055;-79
2021/09/12 19:01:22;;;;;;;5.72;4.53;;;20.20;96.90;;;;;;5031888;28;20401;-79
2021/09/12 19:03:47;;;;;;;7.18;5.00;;;20.20;97.00;;;;;;5051144;28;20047;-79
2021/09/12 19:06:13;;;;;;;9.00;5.63;;;20.10;97.00;;;;;;5044131;28;20087;-79
2021/09/12 19:08:39;;;;;;;6.85;4.55;;;20.10;97.20;;;;;;5054196;28;20123;-79
2021/09/12 19:11:04;;;;;;;7.18;5.05;;;20.00;97.30;;;;;;5051439;28;20052;-80
2021/09/12 19:13:30;;;;;;;6.28;4.55;;;20.00;97.50;;;;;;5029347;28;20037;-80
2021/09/12 19:15:56;;;;;;;6.88;4.72;;;20.00;97.60;;;;;;5054284;28;20347;-80
2021/09/12 19:18:21;;;;;;;6.72;5.45;;;19.90;97.60;;;;;;5043207;28;20041;-78
2021/09/12 19:20:47;;;;;;;6.93;4.93;;;19.80;97.70;;;;;;5049582;28;20052;-78
2021/09/12 19:23:12;;;;;;;7.82;5.68;;;19.80;97.80;;;;;;5054128;28;20103;-79
2021/09/12 19:25:38;;;;;;;6.68;5.00;;;19.80;97.80;;;;;;5039957;28;20034;-79
2021/09/12 19:28:03;;;;;;;8.63;6.18;;;19.70;97.90;;;;;;5043137;28;20294;-79
2021/09/12 19:30:29;;;;;;;6.97;5.50;;;19.70;97.90;;;;;;5046963;28;20039;-79
2021/09/12 19:32:54;;;;;;;6.90;5.22;;;19.60;98.00;;;;;;5043402;28;20045;-79
2021/09/12 19:35:20;;;;;;;8.18;5.63;;;19.60;98.00;;;;;;5024562;28;20131;-79
2021/09/12 19:37:47;;;;;;;8.35;5.75;;;19.60;98.30;;;;;;5052150;28;20037;-79
2021/09/12 19:40:13;;;;;;;7.82;5.65;;;19.60;98.20;;;;;;5044572;28;20087;-79
2021/09/12 19:42:39;;;;;;;8.18;5.43;;;19.50;98.20;;;;;;5041848;28;20123;-77
2021/09/12 19:45:06;;;;;;;5.97;4.70;;;19.50;98.20;;;;;;5040509;28;20395;-78
2021/09/12 19:47:31;;;;;;;8.23;5.47;;;19.50;98.30;;;;;;5044053;28;20120;-78
2021/09/12 19:49:58;;;;;;;6.55;5.13;;;19.40;98.30;;;;;;5044407;28;20053;-78
2021/09/12 19:52:24;;;;;;;7.90;5.07;;;19.40;98.30;;;;;;5050908;28;20369;-79
2021/09/12 19:54:49;;;;;;;6.85;5.57;;;19.40;98.40;;;;;;5052745;28;20112;-79
2021/09/12 19:57:15;;;;;;;5.75;5.10;;;19.40;98.50;;;;;;5035339;28;20127;-79
2021/09/12 19:59:40;;;;;;;5.85;5.07;;;19.30;98.50;;;;;;5054041;28;20316;-79
2021/09/12 20:02:06;;;;;;;5.40;4.53;;;19.30;98.50;;;;;;5059052;28;20048;-79
2021/09/12 20:04:31;;;;;;;6.18;4.97;;;19.30;98.60;;;;;;5053259;28;20577;-79
2021/09/12 20:06:57;;;;;;;6.35;5.40;;;19.30;98.60;;;;;;5056535;28;20331;-79
2021/09/12 20:09:23;;;;;;;7.43;5.07;;;19.30;98.70;;;;;;5046450;28;20431;-79
2021/09/12 20:11:48;;;;;;;8.10;5.25;;;19.30;98.70;;;;;;5055752;28;20257;-79
2021/09/12 20:14:14;;;;;;;6.80;5.18;;;19.30;98.70;;;;;;5052921;28;20531;-78
2021/09/12 20:16:40;;;;;;;8.27;5.80;;;19.20;98.70;;;;;;5058857;28;20105;-78
2021/09/12 20:19:06;;;;;;;5.97;5.20;;;19.20;98.80;;;;;;5053546;28;20151;-78
2021/09/12 20:21:31;;;;;;;7.90;6.03;;;19.20;98.80;;;;;;5040435;28;20483;-79
2021/09/12 20:23:58;;;;;;;11.23;6.60;;;19.10;98.80;;;;;;5048193;28;20105;-79
2021/09/12 20:26:24;;;;;;;6.90;5.65;;;19.10;98.90;;;;;;5047906;28;20061;-79
2021/09/12 20:28:50;;;;;;;9.50;5.95;;;19.10;99.00;;;;;;5046922;28;20072;-79
2021/09/12 20:31:16;;;;;;;9.77;7.45;;;19.10;99.00;;;;;;5051533;28;20037;-79
2021/09/12 20:33:41;;;;;;;7.38;6.30;;;19.00;99.10;;;;;;5050022;28;20038;-80
2021/09/12 20:36:07;;;;;;;8.75;5.88;;;19.00;99.10;;;;;;5049979;28;20323;-79
2021/09/12 20:38:32;;;;;;;7.13;5.93;;;19.00;99.20;;;;;;5046998;28;20119;-79
2021/09/12 20:40:58;;;;;;;7.65;6.32;;;19.00;99.30;;;;;;5043576;28;20530;-78
2021/09/12 20:43:24;;;;;;;8.43;6.75;;;19.00;99.40;;;;;;5056373;28;20045;-79
2021/09/12 20:45:50;;;;;;;7.40;5.93;;;19.00;99.50;;;;;;5054118;28;20033;-79
2021/09/12 20:48:16;;;;;;;8.68;6.93;;;19.00;99.50;;;;;;5049579;28;20041;-79
2021/09/12 20:50:43;;;;;;;11.35;7.07;;;19.00;99.50;;;;;;5047974;28;20125;-79
2021/09/12 20:53:08;;;;;;;9.05;7.18;;;19.10;99.60;;;;;;5052665;28;20443;-79
2021/09/12 20:55:34;;;;;;;9.82;7.88;;;19.00;99.60;;;;;;5051463;28;20132;-79
2021/09/12 20:57:59;;;;;;;8.60;6.30;;;19.10;99.60;;;;;;5054343;28;20048;-79
2021/09/12 21:00:25;;;;;;;8.65;6.95;;;19.10;99.60;;;;;;5050041;28;20628;-79
2021/09/12 21:02:50;;;;;;;8.88;7.30;;;19.10;99.60;;;;;;5049005;28;20092;-79
2021/09/12 21:05:16;;;;;;;7.82;6.32;;;19.10;99.50;;;;;;5053319;28;20041;-79
2021/09/12 21:07:41;;;;;;;8.48;6.40;;;19.20;99.60;;;;;;5051068;28;20056;-80
2021/09/12 21:10:14;;;;;;;10.18;6.68;;;19.20;99.50;;;;;;5048615;28;20112;-80
2021/09/12 21:12:41;;;;;;;8.15;6.65;;;19.20;99.60;;;;;;5049579;28;20036;-80
2021/09/12 21:15:08;;;;;;;7.90;5.75;;;19.20;99.60;;;;;;5037583;28;20132;-77
2021/09/12 21:17:34;;;;;;;9.82;6.03;;;19.20;99.60;;;;;;5055994;28;20041;-79
2021/09/12 21:20:00;;;;;;;8.13;6.22;;;19.20;99.50;;;;;;5048145;28;20037;-78
2021/09/12 21:22:26;;;;;;;8.55;6.82;;;19.20;99.50;;;;;;5053932;28;20041;-78
2021/09/12 21:24:52;;;;;;;7.30;6.15;;;19.20;99.50;;;;;;5055455;28;20043;-79
2021/09/12 21:27:17;;;;;;;11.02;6.20;;;19.20;99.50;;;;;;5049266;28;20032;-79
2021/09/12 21:29:43;;;;;;;7.72;5.70;;;19.20;99.50;;;;;;5054855;28;20033;-79
2021/09/12 21:32:08;;;;;;;6.82;5.25;;;19.30;99.50;;;;;;5050068;28;20461;-80
2021/09/12 21:34:34;;;;;;;7.00;6.00;;;19.20;99.50;;;;;;5035557;28;20041;-78
2021/09/12 21:36:59;;;;;;;9.07;5.55;;;19.20;99.50;;;;;;5052325;28;20049;-79
2021/09/12 21:39:25;;;;;;;7.72;6.18;;;19.20;99.50;;;;;;5049292;28;20043;-78
2021/09/12 21:41:50;;;;;;;7.00;5.15;;;19.20;99.50;;;;;;5058765;28;20451;-79
2021/09/12 21:44:16;;;;;;;8.50;6.43;;;19.20;99.50;;;;;;5057697;28;20049;-79
2021/09/12 21:46:41;;;;;;;10.05;5.75;;;19.20;99.50;;;;;;5051841;28;20037;-79
2021/09/12 21:49:07;;;;;;;7.50;5.85;;;19.10;99.50;;;;;;5057042;28;20052;-80
2021/09/12 21:51:32;;;;;;;7.57;5.93;;;19.10;99.50;;;;;;5053024;28;20644;-79
2021/09/12 21:53:58;;;;;;;7.38;5.65;;;19.10;99.60;;;;;;5057856;28;20135;-80
2021/09/12 21:56:23;;;;;;;8.07;6.07;;;19.10;99.50;;;;;;5048024;28;20094;-80
2021/09/12 21:58:49;;;;;;;7.38;5.20;;;19.10;99.50;;;;;;5050390;28;20047;-80
2021/09/12 22:01:14;;;;;;;9.05;6.28;;;19.10;99.50;;;;;;5054038;28;20065;-80
2021/09/12 22:03:40;;;;;;;8.00;6.07;;;19.10;99.50;;;;;;5055750;28;20771;-79
2021/09/12 22:06:07;;;;;;;9.27;6.28;;;19.10;99.50;;;;;;5051731;28;20111;-79
2021/09/12 22:08:33;;;;;;;10.50;6.40;;;19.10;99.60;;;;;;5042636;28;20037;-79
2021/09/12 22:11:01;;;;;;;7.65;5.68;;;19.00;99.60;;;;;;5044586;28;20423;-80
2021/09/12 22:13:30;;;;;;;9.95;7.07;;;19.00;99.60;;;;;;5075788;28;20798;-79
2021/09/12 22:15:56;;;;;;;9.10;7.00;;;19.00;99.70;;;;;;5058193;28;20036;-80
2021/09/12 22:18:22;;;;;;;12.05;7.10;;;19.00;99.70;;;;;;5057905;28;20312;-80
2021/09/12 22:20:47;;;;;;;9.63;7.32;;;18.90;99.70;;;;;;5066565;28;20033;-79
2021/09/12 22:23:14;;;;;;;8.77;6.55;;;18.90;99.80;;;;;;5060762;28;20174;-79
2021/09/12 22:25:40;;;;;;;10.15;7.20;;;18.90;99.80;;;;;;5058472;28;20032;-79
2021/09/12 22:28:06;;;;;;;8.20;6.78;;;18.90;99.90;;;;;;5028633;28;20098;-79
2021/09/12 22:30:32;;;;;;;8.25;6.63;;;18.80;99.90;;;;;;5039441;28;20040;-78
2021/09/12 22:32:57;;;;;;;9.13;6.93;;;18.90;99.90;;;;;;5061082;28;20410;-78
2021/09/12 22:35:23;;;;;;;12.70;8.25;;;18.80;99.90;;;;;;5034950;28;20044;-79
2021/09/12 22:37:49;;;;;;;9.65;6.75;;;18.80;99.90;;;;;;5072108;28;20133;-79
2021/09/12 22:40:14;;;;;;;10.65;7.20;;;18.80;99.90;;;;;;5056156;28;20064;-79
2021/09/12 22:42:40;;;;;;;9.02;7.22;;;18.70;99.90;;;;;;5062577;28;20640;-80
2021/09/12 22:45:06;;;;;;;9.30;6.90;;;18.70;99.90;;;;;;5036782;28;20045;-80
2021/09/12 22:47:32;;;;;;;10.70;7.43;;;18.60;99.90;;;;;;5055425;28;20043;-80
2021/09/12 22:49:57;;;;;;;9.93;7.07;;;18.60;99.90;;;;;;5055232;28;20033;-80
2021/09/12 22:52:22;;;;;;;10.10;6.85;;;18.60;99.90;;;;;;5061486;28;21254;-80
2021/09/12 22:54:48;;;;;;;10.25;7.13;;;18.50;99.90;;;;;;5058174;28;20037;-80
2021/09/12 22:57:13;;;;;;;9.85;7.13;;;18.50;99.90;;;;;;5060770;28;20116;-80
2021/09/12 22:59:39;;;;;;;9.18;6.45;;;18.40;99.90;;;;;;5055978;28;20096;-80
2021/09/12 23:02:05;;;;;;;10.95;7.88;;;18.40;99.90;;;;;;5059597;28;20040;-80
2021/09/12 23:04:30;;;;;;;7.30;6.43;;;18.40;99.90;;;;;;5052460;28;20119;-80
2021/09/12 23:06:56;;;;;;;8.57;6.57;;;18.40;99.90;;;;;;5056855;28;20051;-80
2021/09/12 23:09:21;;;;;;;9.73;6.68;;;18.30;99.90;;;;;;5056288;28;20075;-80
2021/09/12 23:11:47;;;;;;;11.50;7.35;;;18.30;99.90;;;;;;5049104;28;20041;-80
2021/09/12 23:14:13;;;;;;;9.43;6.88;;;18.30;99.90;;;;;;5066644;28;20461;-80
2021/09/12 23:16:39;;;;;;;13.80;7.68;;;18.30;99.90;;;;;;5064311;28;20068;-80
2021/09/12 23:19:04;;;;;;;9.38;7.35;;;18.20;99.90;;;;;;5060879;28;20047;-80
2021/09/12 23:21:30;;;;;;;9.80;7.18;;;18.20;99.90;;;;;;5048837;28;20420;-79
2021/09/12 23:23:55;;;;;;;10.20;7.43;;;18.20;99.90;;;;;;5060592;28;20154;-80
2021/09/12 23:26:21;;;;;;;10.35;7.35;;;18.20;99.90;;;;;;5058770;28;20050;-79
2021/09/12 23:28:46;;;;;;;12.70;8.00;;;18.20;99.90;;;;;;5059833;28;20182;-79
2021/09/12 23:31:12;;;;;;;10.07;7.03;;;18.20;99.90;;;;;;5060849;28;20403;-79
2021/09/12 23:33:38;;;;;;;13.20;7.45;;;18.20;99.90;;;;;;5052358;28;20036;-79
2021/09/12 23:36:03;;;;;;;10.60;7.25;;;18.20;99.90;;;;;;5061740;28;20036;-79
2021/09/12 23:38:29;;;;;;;9.73;7.18;;;18.20;99.90;;;;;;5058014;28;20041;-79
2021/09/12 23:40:54;;;;;;;12.30;8.95;;;18.20;99.90;;;;;;5057695;28;20032;-81
2021/09/12 23:43:20;;;;;;;13.77;9.73;;;18.20;99.90;;;;;;5068160;28;20052;-79
2021/09/12 23:45:45;;;;;;;12.13;8.30;;;18.20;99.90;;;;;;5073194;28;20626;-79
2021/09/12 23:48:11;;;;;;;11.48;8.23;;;18.20;99.90;;;;;;5056224;28;20037;-78
2021/09/12 23:50:36;;;;;;;12.00;8.52;;;18.30;99.90;;;;;;5057012;28;20033;-80
2021/09/12 23:53:02;;;;;;;13.50;9.07;;;18.30;99.90;;;;;;5049868;28;20041;-78
2021/09/12 23:55:28;;;;;;;11.07;8.52;;;18.30;99.90;;;;;;5035333;28;20404;-79
2021/09/12 23:57:53;;;;;;;12.75;7.72;;;18.40;99.90;;;;;;5056433;28;20036;-79
